Time;durP1;ratioP1;P1;durP2;ratioP2;P2;SDS_P1;SDS_P2;PMS_P1;PMS_P2;Temp;Humidity;BMP_temperature;BMP_pressure;BME280_temperature;BME280_humidity;BME280_pressure;Samples;Min_cycle;Max_cycle;Signal;HPM_P1;HPM_P2
2022/07/08 00:01:38;;;;;;;8.95;5.70;;;27.80;95.20;;;;;;5033175;28;20049;-65
2022/07/08 00:04:06;;;;;;;9.68;5.20;;;27.80;95.10;;;;;;5033826;28;20136;-66
2022/07/08 00:06:34;;;;;;;13.50;5.05;;;27.80;95.00;;;;;;5016361;28;20053;-65
2022/07/08 00:09:01;;;;;;;13.02;4.93;;;27.80;95.00;;;;;;5049223;28;20053;-67
2022/07/08 00:11:29;;;;;;;5.60;3.63;;;27.80;95.00;;;;;;5033901;28;20064;-66
2022/07/08 00:13:57;;;;;;;13.73;4.30;;;27.80;94.90;;;;;;5016233;28;20103;-65
2022/07/08 00:16:24;;;;;;;7.88;3.85;;;27.70;94.80;;;;;;5032596;28;20056;-67
2022/07/08 00:18:52;;;;;;;12.35;5.13;;;27.70;94.80;;;;;;5032558;28;20037;-66
2022/07/08 00:21:20;;;;;;;7.22;4.72;;;27.70;94.80;;;;;;5033776;28;20128;-65
2022/07/08 00:23:48;;;;;;;9.90;4.65;;;27.70;94.80;;;;;;5032835;28;20049;-65
2022/07/08 00:26:16;;;;;;;8.70;4.00;;;27.70;94.70;;;;;;5032301;28;20050;-66
2022/07/08 00:28:43;;;;;;;8.75;4.28;;;27.70;94.70;;;;;;5032232;28;20057;-65
2022/07/08 00:31:11;;;;;;;9.20;4.10;;;27.70;94.70;;;;;;5015927;28;20096;-68
2022/07/08 00:33:38;;;;;;;6.13;3.83;;;27.70;94.60;;;;;;5032112;28;20044;-65
2022/07/08 00:36:06;;;;;;;10.70;4.55;;;27.70;94.50;;;;;;5033572;28;20060;-67
2022/07/08 00:38:34;;;;;;;8.15;4.32;;;27.70;94.40;;;;;;5032551;28;20503;-65
2022/07/08 00:41:01;;;;;;;8.40;4.38;;;27.70;94.30;;;;;;5033633;28;20081;-67
2022/07/08 00:43:39;;;;;;;8.57;4.40;;;27.60;94.10;;;;;;5032095;28;20107;-65
2022/07/08 00:46:08;;;;;;;10.77;3.95;;;27.60;94.10;;;;;;5029840;28;20045;-65
2022/07/08 00:48:36;;;;;;;7.45;5.18;;;27.50;94.20;;;;;;5032009;28;20038;-65
2022/07/08 00:51:07;;;;;;;9.52;5.13;;;27.40;94.40;;;;;;5015717;28;20111;-66
2022/07/08 00:53:39;;;;;;;6.80;3.90;;;27.20;94.60;;;;;;5032042;28;20047;-65
2022/07/08 00:56:09;;;;;;;10.10;4.50;;;27.20;94.90;;;;;;5031686;28;20045;-65
2022/07/08 00:58:38;;;;;;;7.57;4.32;;;27.20;94.90;;;;;;5047752;28;20514;-65
2022/07/08 01:01:06;;;;;;;7.50;4.65;;;27.20;94.80;;;;;;5048312;28;20152;-68
2022/07/08 01:03:34;;;;;;;10.18;5.20;;;27.30;94.70;;;;;;5031867;28;20126;-66
2022/07/08 01:06:02;;;;;;;9.07;4.75;;;27.30;94.60;;;;;;5031408;28;20073;-67
2022/07/08 01:08:29;;;;;;;5.80;4.43;;;27.30;94.40;;;;;;5031808;28;20057;-66
2022/07/08 01:10:57;;;;;;;7.13;4.22;;;27.40;94.40;;;;;;5015190;28;20131;-66
2022/07/08 01:13:25;;;;;;;9.73;5.30;;;27.50;94.20;;;;;;5015434;28;20107;-65
2022/07/08 01:15:53;;;;;;;8.48;5.88;;;27.50;94.10;;;;;;5047903;28;20083;-66
2022/07/08 01:18:22;;;;;;;8.02;5.00;;;27.50;93.90;;;;;;5031529;28;20180;-66
2022/07/08 01:20:51;;;;;;;8.63;4.75;;;27.40;94.20;;;;;;5032623;28;20048;-65
2022/07/08 01:23:19;;;;;;;8.70;4.35;;;27.30;94.70;;;;;;5031357;28;20076;-66
2022/07/08 01:25:48;;;;;;;9.10;4.53;;;27.30;95.00;;;;;;5014963;28;20060;-66
2022/07/08 01:28:16;;;;;;;7.40;5.70;;;27.30;95.00;;;;;;5030990;28;20479;-66
2022/07/08 01:30:44;;;;;;;8.35;4.78;;;27.30;95.10;;;;;;5031684;28;20051;-65
2022/07/08 01:33:11;;;;;;;12.32;5.03;;;27.20;95.10;;;;;;5015054;28;20120;-67
2022/07/08 01:35:39;;;;;;;9.65;4.53;;;27.30;95.00;;;;;;5031117;28;20049;-66
2022/07/08 01:38:07;;;;;;;6.97;4.78;;;27.30;95.20;;;;;;5030906;28;20053;-66
2022/07/08 01:40:35;;;;;;;7.65;4.40;;;27.30;94.90;;;;;;5013997;28;20049;-65
2022/07/08 01:43:02;;;;;;;9.20;4.55;;;27.30;94.70;;;;;;5031163;28;20050;-65
2022/07/08 01:45:30;;;;;;;6.55;5.10;;;27.30;94.50;;;;;;5031368;28;20052;-65
2022/07/08 01:47:57;;;;;;;8.40;4.38;;;27.30;94.30;;;;;;5030666;28;20049;-66
2022/07/08 01:50:25;;;;;;;7.22;4.40;;;27.30;94.20;;;;;;5030808;28;20103;-65
2022/07/08 01:52:53;;;;;;;6.43;4.10;;;27.40;94.10;;;;;;5030780;28;20188;-65
2022/07/08 01:55:20;;;;;;;6.82;3.83;;;27.40;94.10;;;;;;5047263;28;20133;-66
2022/07/08 01:57:48;;;;;;;9.85;5.85;;;27.40;93.90;;;;;;5030788;28;20037;-67
2022/07/08 02:00:16;;;;;;;5.60;4.15;;;27.40;93.90;;;;;;5031897;28;20033;-64
2022/07/08 02:02:44;;;;;;;8.00;4.72;;;27.40;93.80;;;;;;5030778;28;20042;-66
2022/07/08 02:05:13;;;;;;;8.77;4.85;;;27.40;93.80;;;;;;5047171;28;20096;-65
2022/07/08 02:07:42;;;;;;;7.53;4.40;;;27.50;93.80;;;;;;5030544;28;20144;-65
2022/07/08 02:10:11;;;;;;;8.38;4.22;;;27.50;93.80;;;;;;5013114;28;20045;-65
2022/07/08 02:12:39;;;;;;;7.68;4.15;;;27.40;93.80;;;;;;5031755;28;20057;-66
2022/07/08 02:15:08;;;;;;;8.73;4.38;;;27.40;93.80;;;;;;5013897;28;20130;-65
2022/07/08 02:17:38;;;;;;;7.18;4.60;;;27.40;93.80;;;;;;5030225;28;20049;-67
2022/07/08 02:20:09;;;;;;;6.65;3.95;;;27.40;93.80;;;;;;5047075;28;20037;-65
2022/07/08 02:22:37;;;;;;;8.10;5.07;;;27.40;93.70;;;;;;5031613;28;20064;-66
2022/07/08 02:25:05;;;;;;;5.55;4.07;;;27.40;93.70;;;;;;5046537;28;20037;-65
2022/07/08 02:27:32;;;;;;;9.55;3.97;;;27.30;93.60;;;;;;5040847;28;20042;-65
2022/07/08 02:30:00;;;;;;;6.80;4.35;;;27.30;93.70;;;;;;5009975;28;20068;-67
2022/07/08 02:32:28;;;;;;;7.18;4.50;;;27.20;93.60;;;;;;4977705;28;20045;-65
2022/07/08 02:34:57;;;;;;;6.55;4.63;;;27.10;94.00;;;;;;5026804;28;20042;-65
2022/07/08 02:37:24;;;;;;;8.38;4.65;;;26.90;94.30;;;;;;5026697;28;20049;-65
2022/07/08 02:39:52;;;;;;;9.02;4.63;;;26.60;94.50;;;;;;5011557;28;20046;-65
2022/07/08 02:42:19;;;;;;;5.85;4.10;;;26.50;95.00;;;;;;5010511;28;20045;-65
2022/07/08 02:44:47;;;;;;;9.30;5.32;;;26.40;95.20;;;;;;5010081;28;20495;-65
2022/07/08 02:47:15;;;;;;;5.78;4.03;;;26.40;95.40;;;;;;5011517;28;20045;-68
2022/07/08 02:49:42;;;;;;;7.47;4.60;;;26.30;95.50;;;;;;5011378;28;20042;-65
2022/07/08 02:52:10;;;;;;;11.32;4.97;;;26.30;95.60;;;;;;5009976;28;20069;-65
2022/07/08 02:54:38;;;;;;;8.65;4.53;;;26.30;95.60;;;;;;5011123;28;20049;-66
2022/07/08 02:57:05;;;;;;;8.40;5.03;;;26.40;95.50;;;;;;5010137;28;20093;-65
2022/07/08 02:59:33;;;;;;;11.18;4.90;;;26.40;95.40;;;;;;5026208;28;20046;-66
2022/07/08 03:02:01;;;;;;;11.20;4.70;;;26.50;95.30;;;;;;5017398;28;20060;-66
2022/07/08 03:04:29;;;;;;;11.68;4.72;;;26.60;95.10;;;;;;5013459;28;20049;-65
2022/07/08 03:06:56;;;;;;;8.82;4.82;;;26.70;95.00;;;;;;5029618;28;20064;-65
2022/07/08 03:09:23;;;;;;;14.63;5.45;;;26.70;94.90;;;;;;5046181;28;20479;-67
2022/07/08 03:11:51;;;;;;;8.30;4.28;;;26.80;94.90;;;;;;5029354;28;20048;-67
2022/07/08 03:14:19;;;;;;;7.43;4.07;;;26.80;94.70;;;;;;5030535;28;20041;-66
2022/07/08 03:16:46;;;;;;;5.80;4.10;;;26.80;94.60;;;;;;5013140;28;20049;-65
2022/07/08 03:19:14;;;;;;;9.05;4.78;;;26.80;94.60;;;;;;5045944;28;20045;-66
2022/07/08 03:21:41;;;;;;;6.88;4.82;;;26.80;94.60;;;;;;5016754;28;20519;-65
2022/07/08 03:24:09;;;;;;;8.00;4.93;;;26.80;94.50;;;;;;5009296;28;20092;-65
2022/07/08 03:26:36;;;;;;;7.18;5.55;;;26.80;94.40;;;;;;5010615;28;20157;-68
2022/07/08 03:29:04;;;;;;;9.23;4.40;;;26.80;94.30;;;;;;4992992;28;20046;-65
2022/07/08 03:31:33;;;;;;;10.77;4.40;;;26.80;94.20;;;;;;5010528;28;20089;-65
2022/07/08 03:34:00;;;;;;;7.13;5.18;;;26.80;93.90;;;;;;5009467;28;20138;-65
2022/07/08 03:36:29;;;;;;;7.20;4.22;;;26.80;93.70;;;;;;4992864;28;20054;-67
2022/07/08 03:38:57;;;;;;;9.13;4.35;;;26.80;93.60;;;;;;5009336;28;20038;-65
2022/07/08 03:41:24;;;;;;;7.95;4.65;;;26.80;93.40;;;;;;4993248;28;20095;-65
2022/07/08 03:43:53;;;;;;;6.72;4.25;;;26.90;93.30;;;;;;5009584;28;20509;-65
2022/07/08 03:46:21;;;;;;;6.28;4.35;;;26.90;93.20;;;;;;5010838;28;20052;-65
2022/07/08 03:48:48;;;;;;;6.18;4.43;;;26.90;93.10;;;;;;5009482;28;20088;-65
2022/07/08 03:51:16;;;;;;;8.10;4.70;;;26.90;93.10;;;;;;4977201;28;20491;-65
2022/07/08 03:53:44;;;;;;;6.97;4.68;;;26.90;93.10;;;;;;5009401;28;20680;-68
2022/07/08 03:56:12;;;;;;;7.57;4.28;;;26.90;93.10;;;;;;5009439;28;20044;-65
2022/07/08 03:58:40;;;;;;;5.90;4.53;;;26.90;93.00;;;;;;4993351;28;20045;-67
2022/07/08 04:01:08;;;;;;;9.13;4.03;;;26.90;93.00;;;;;;4993198;28;20045;-65
2022/07/08 04:03:35;;;;;;;6.75;4.28;;;26.90;93.00;;;;;;5010586;28;20041;-65
2022/07/08 04:06:03;;;;;;;5.45;4.25;;;26.90;93.00;;;;;;5010219;28;20133;-66
2022/07/08 04:08:31;;;;;;;6.68;4.07;;;26.90;92.90;;;;;;5009261;28;20457;-65
2022/07/08 04:10:59;;;;;;;6.75;4.25;;;26.90;92.90;;;;;;4993255;28;20156;-65
2022/07/08 04:13:29;;;;;;;5.10;3.97;;;27.00;92.80;;;;;;4976944;28;20148;-66
2022/07/08 04:15:57;;;;;;;6.10;3.83;;;27.10;92.70;;;;;;4976657;28;20137;-65
2022/07/08 04:18:25;;;;;;;5.28;4.28;;;27.20;92.60;;;;;;5019603;28;20068;-65
2022/07/08 04:20:52;;;;;;;5.95;4.70;;;27.30;92.50;;;;;;5030181;28;20049;-66
2022/07/08 04:23:20;;;;;;;7.55;4.15;;;27.40;92.40;;;;;;5030143;28;20406;-65
2022/07/08 04:25:48;;;;;;;6.03;3.92;;;27.50;92.30;;;;;;5028693;28;20110;-67
2022/07/08 04:28:15;;;;;;;4.93;3.80;;;27.60;92.20;;;;;;5028404;28;20424;-65
2022/07/08 04:30:43;;;;;;;6.28;4.13;;;27.70;92.10;;;;;;5028987;28;20050;-68
2022/07/08 04:33:11;;;;;;;5.40;3.97;;;27.90;92.00;;;;;;5032274;28;20059;-67
2022/07/08 04:35:38;;;;;;;7.13;3.88;;;27.90;91.70;;;;;;5032354;28;20480;-66
2022/07/08 04:38:06;;;;;;;8.25;4.07;;;28.00;91.60;;;;;;5016001;28;20419;-65
2022/07/08 04:40:33;;;;;;;7.57;3.97;;;28.10;91.60;;;;;;5032310;28;20384;-65
2022/07/08 04:43:01;;;;;;;6.25;4.43;;;28.20;91.50;;;;;;5032230;28;20119;-66
2022/07/08 04:45:28;;;;;;;6.97;4.60;;;28.40;91.70;;;;;;5048627;28;20049;-67
2022/07/08 04:47:56;;;;;;;6.05;3.90;;;28.50;91.30;;;;;;5032945;28;20047;-67
2022/07/08 04:50:24;;;;;;;7.68;4.38;;;28.60;91.20;;;;;;5030195;28;20079;-66
2022/07/08 04:52:52;;;;;;;7.75;4.35;;;28.70;91.20;;;;;;5048373;28;20052;-65
2022/07/08 04:55:29;;;;;;;6.68;4.05;;;28.80;91.10;;;;;;5031949;28;20045;-65
2022/07/08 04:58:02;;;;;;;5.82;3.92;;;28.80;91.00;;;;;;4854654;28;21213;-67
2022/07/08 05:00:31;;;;;;;7.60;4.28;;;28.70;91.10;;;;;;4865210;28;20768;-66
2022/07/08 05:03:00;;;;;;;6.63;4.15;;;28.70;91.40;;;;;;4586742;28;20334;-66
2022/07/08 05:05:30;;;;;;;6.65;4.22;;;28.70;91.50;;;;;;4577047;28;20508;-67
2022/07/08 05:07:58;;;;;;;6.68;4.00;;;28.80;91.60;;;;;;4745645;28;20049;-65
2022/07/08 05:10:26;;;;;;;8.73;4.90;;;28.90;91.60;;;;;;5017155;28;20048;-67
2022/07/08 05:12:55;;;;;;;6.53;4.80;;;29.00;91.70;;;;;;5032746;28;20045;-65
2022/07/08 05:15:23;;;;;;;8.93;4.32;;;29.20;91.90;;;;;;5047881;28;20049;-66
2022/07/08 05:17:52;;;;;;;11.25;4.38;;;29.20;92.20;;;;;;5031632;28;20487;-65
2022/07/08 05:20:21;;;;;;;6.82;4.00;;;29.40;92.30;;;;;;5047989;28;20128;-65
2022/07/08 05:22:48;;;;;;;7.28;4.30;;;29.50;92.40;;;;;;5031471;28;20045;-66
2022/07/08 05:25:16;;;;;;;7.45;3.75;;;29.60;92.50;;;;;;5031325;28;20511;-66
2022/07/08 05:27:43;;;;;;;6.65;3.85;;;29.70;92.70;;;;;;5031464;28;20144;-67
2022/07/08 05:30:12;;;;;;;6.93;3.80;;;29.80;92.90;;;;;;5031168;28;20049;-67
2022/07/08 05:32:40;;;;;;;6.53;4.10;;;29.90;93.00;;;;;;5031718;28;20056;-66
2022/07/08 05:35:09;;;;;;;8.38;3.90;;;30.00;93.00;;;;;;5031140;28;20042;-66
2022/07/08 05:37:40;;;;;;;10.57;5.00;;;30.00;93.00;;;;;;5047569;28;20140;-66
2022/07/08 05:40:10;;;;;;;9.35;4.82;;;30.10;93.20;;;;;;5014457;28;20049;-65
2022/07/08 05:42:38;;;;;;;7.65;4.20;;;30.20;92.90;;;;;;5031021;28;20057;-66
2022/07/08 05:45:07;;;;;;;8.52;3.33;;;30.30;92.80;;;;;;5030908;28;20491;-65
2022/07/08 05:47:35;;;;;;;11.60;3.67;;;30.40;92.70;;;;;;5047546;28;20505;-65
2022/07/08 05:50:04;;;;;;;9.30;3.72;;;30.50;92.40;;;;;;5030727;28;20057;-66
2022/07/08 05:52:32;;;;;;;14.60;4.22;;;30.50;92.20;;;;;;5032111;28;20037;-65
2022/07/08 05:54:59;;;;;;;10.48;4.18;;;30.50;92.30;;;;;;5047208;28;20037;-65
2022/07/08 05:57:27;;;;;;;13.93;5.00;;;30.40;92.20;;;;;;5031279;28;20054;-65
2022/07/08 05:59:55;;;;;;;8.43;4.03;;;30.20;92.10;;;;;;5028216;28;20060;-66
2022/07/08 06:02:23;;;;;;;13.10;5.50;;;30.00;92.20;;;;;;5031903;28;20041;-66
2022/07/08 06:04:50;;;;;;;10.98;5.18;;;29.90;92.50;;;;;;5031605;28;20041;-65
2022/07/08 06:07:18;;;;;;;12.10;5.05;;;29.70;92.80;;;;;;5030703;28;20049;-65
2022/07/08 06:09:45;;;;;;;14.00;5.03;;;29.70;92.90;;;;;;5030603;28;20099;-64
2022/07/08 06:12:13;;;;;;;15.50;4.57;;;29.60;93.00;;;;;;5031400;28;20046;-65
2022/07/08 06:14:40;;;;;;;12.80;4.45;;;29.60;92.90;;;;;;5030728;28;20054;-65
2022/07/08 06:17:08;;;;;;;15.02;4.70;;;29.50;93.00;;;;;;5031316;28;20444;-65
2022/07/08 06:19:36;;;;;;;10.60;4.65;;;29.50;93.00;;;;;;5031525;28;20052;-66
2022/07/08 06:22:04;;;;;;;11.65;4.40;;;29.50;93.00;;;;;;5031579;28;20554;-66
2022/07/08 06:24:31;;;;;;;10.80;5.03;;;29.40;92.90;;;;;;5030360;28;20065;-65
2022/07/08 06:26:59;;;;;;;10.15;4.53;;;29.40;92.90;;;;;;5030389;28;20072;-65
2022/07/08 06:29:26;;;;;;;11.13;4.00;;;29.40;92.90;;;;;;5029984;28;20449;-65
2022/07/08 06:31:54;;;;;;;13.20;4.53;;;29.30;93.00;;;;;;5030107;28;20076;-65
2022/07/08 06:34:22;;;;;;;8.68;3.70;;;29.30;93.00;;;;;;5030270;28;20136;-65
2022/07/08 06:36:49;;;;;;;14.45;5.30;;;29.30;93.00;;;;;;5030239;28;20710;-67
2022/07/08 06:39:17;;;;;;;8.77;4.13;;;29.20;93.00;;;;;;5013515;28;20033;-65
2022/07/08 06:41:44;;;;;;;12.68;4.25;;;29.20;92.90;;;;;;5030063;28;20056;-65
2022/07/08 06:44:12;;;;;;;12.00;4.15;;;29.10;92.80;;;;;;5029813;28;20046;-66
2022/07/08 06:46:39;;;;;;;6.93;4.10;;;29.00;92.70;;;;;;5030864;28;20045;-65
2022/07/08 06:49:08;;;;;;;9.25;3.35;;;29.00;92.70;;;;;;5029923;28;20466;-66
2022/07/08 06:51:35;;;;;;;7.55;3.70;;;29.00;92.70;;;;;;5031018;28;20041;-67
2022/07/08 06:56:49;;;;;;;8.20;3.80;;;28.90;92.80;;;;;;5028271;28;20041;-67
2022/07/08 06:59:17;;;;;;;7.90;3.15;;;28.80;92.80;;;;;;4997073;28;20119;-67
2022/07/08 07:01:45;;;;;;;7.95;3.63;;;28.80;92.80;;;;;;5030584;28;20094;-66
2022/07/08 07:04:12;;;;;;;7.43;3.85;;;28.80;92.90;;;;;;5029264;28;20921;-66
2022/07/08 07:06:40;;;;;;;8.75;3.47;;;28.90;93.10;;;;;;5013065;28;20422;-66
2022/07/08 07:09:08;;;;;;;9.57;3.70;;;28.80;93.10;;;;;;5030894;28;20123;-66
2022/07/08 07:11:38;;;;;;;11.95;3.78;;;28.90;93.00;;;;;;5029075;28;20041;-65
2022/07/08 07:14:05;;;;;;;14.85;3.28;;;28.90;92.80;;;;;;5030584;28;20045;-67
2022/07/08 07:16:33;;;;;;;5.97;3.42;;;29.00;92.60;;;;;;5029358;28;20083;-66
2022/07/08 07:19:01;;;;;;;7.65;3.25;;;28.90;92.40;;;;;;5029203;28;20069;-67
2022/07/08 07:21:29;;;;;;;10.95;3.97;;;28.80;92.10;;;;;;5045503;28;20518;-66
2022/07/08 07:23:56;;;;;;;8.07;2.70;;;28.50;91.50;;;;;;5012504;28;20049;-66
2022/07/08 07:26:24;;;;;;;7.55;3.97;;;28.10;91.80;;;;;;5029370;28;20065;-67
2022/07/08 07:28:52;;;;;;;8.90;3.80;;;27.80;92.80;;;;;;5030192;28;20162;-64
2022/07/08 07:31:19;;;;;;;16.77;5.03;;;27.40;93.60;;;;;;5030559;28;20088;-65
2022/07/08 07:33:47;;;;;;;15.00;4.53;;;27.00;95.30;;;;;;5029016;28;20158;-65
2022/07/08 07:36:17;;;;;;;22.02;7.35;;;26.70;95.60;;;;;;5028920;28;20045;-65
2022/07/08 07:38:52;;;;;;;15.10;7.25;;;26.50;96.50;;;;;;5030554;28;20049;-64
2022/07/08 07:41:27;;;;;;;13.70;5.45;;;26.50;97.40;;;;;;5029008;28;20046;-65
2022/07/08 07:43:56;;;;;;;17.77;5.43;;;26.10;97.40;;;;;;5029066;28;20053;-66
2022/07/08 07:46:24;;;;;;;10.93;6.38;;;25.40;98.50;;;;;;5028955;28;20080;-63
2022/07/08 07:48:51;;;;;;;13.98;5.47;;;25.10;99.40;;;;;;5026738;28;20126;-65
2022/07/08 07:51:19;;;;;;;11.65;4.78;;;25.00;99.90;;;;;;5028916;28;20056;-66
2022/07/08 07:53:46;;;;;;;7.35;4.28;;;24.60;99.90;;;;;;5029164;28;20049;-65
2022/07/08 07:56:14;;;;;;;7.68;4.65;;;24.60;99.90;;;;;;5028854;28;20042;-68
2022/07/08 07:58:43;;;;;;;7.57;3.83;;;24.70;99.90;;;;;;5029897;28;20041;-65
2022/07/08 08:01:10;;;;;;;10.50;5.25;;;24.90;99.90;;;;;;5012801;28;20056;-65
2022/07/08 08:03:38;;;;;;;13.68;5.10;;;25.10;99.90;;;;;;5030147;28;20072;-65
2022/07/08 08:06:06;;;;;;;6.72;3.53;;;25.30;99.90;;;;;;5029933;28;20053;-64
2022/07/08 08:08:34;;;;;;;9.27;3.92;;;25.50;99.90;;;;;;5033115;28;20041;-65
2022/07/08 08:11:03;;;;;;;7.53;3.50;;;25.70;99.90;;;;;;5049236;28;20495;-66
2022/07/08 08:13:31;;;;;;;6.93;4.10;;;25.80;99.80;;;;;;5032861;28;20045;-66
2022/07/08 08:15:58;;;;;;;5.63;3.35;;;25.70;98.80;;;;;;5033823;28;20045;-65
2022/07/08 08:18:26;;;;;;;9.40;4.55;;;25.60;99.30;;;;;;5032650;28;20037;-64
2022/07/08 08:20:54;;;;;;;7.57;3.47;;;25.90;99.50;;;;;;5048985;28;20376;-65
2022/07/08 08:23:21;;;;;;;6.40;3.20;;;26.00;99.30;;;;;;5032733;28;20084;-64
2022/07/08 08:25:49;;;;;;;5.13;3.33;;;26.00;98.60;;;;;;5049072;28;20045;-65
2022/07/08 08:28:17;;;;;;;5.38;3.38;;;26.10;97.10;;;;;;5033221;28;20046;-64
2022/07/08 08:30:45;;;;;;;5.53;2.90;;;26.30;97.20;;;;;;5033443;28;20049;-66
2022/07/08 08:33:13;;;;;;;7.30;4.03;;;26.60;96.60;;;;;;5032543;28;20045;-64
2022/07/08 08:35:40;;;;;;;3.88;2.72;;;26.80;97.50;;;;;;5033622;28;20045;-67
2022/07/08 08:38:08;;;;;;;8.35;3.00;;;26.80;96.60;;;;;;5048551;28;20037;-65
2022/07/08 08:40:38;;;;;;;4.57;3.00;;;27.00;97.00;;;;;;5033594;28;20041;-65
2022/07/08 08:43:05;;;;;;;6.60;2.95;;;27.10;97.20;;;;;;5032155;28;20045;-64
2022/07/08 08:45:34;;;;;;;6.00;3.08;;;27.10;97.50;;;;;;5033558;28;20049;-67
2022/07/08 08:48:07;;;;;;;5.68;3.78;;;27.10;97.30;;;;;;5033336;28;20045;-67
2022/07/08 08:50:54;;;;;;;9.35;3.50;;;27.10;96.60;;;;;;5033548;28;20037;-67
2022/07/08 08:53:28;;;;;;;4.82;3.17;;;27.00;98.00;;;;;;5016043;28;20064;-67
2022/07/08 08:55:57;;;;;;;5.40;3.45;;;27.00;96.50;;;;;;5032115;28;20132;-65
2022/07/08 08:58:25;;;;;;;7.38;3.60;;;27.10;96.80;;;;;;5031930;28;20049;-65
2022/07/08 09:00:52;;;;;;;10.90;3.53;;;27.20;97.50;;;;;;5031918;28;20091;-65
2022/07/08 09:03:20;;;;;;;11.77;3.85;;;27.50;97.90;;;;;;5033024;28;20133;-68
2022/07/08 09:05:49;;;;;;;7.13;4.25;;;27.90;97.90;;;;;;5033398;28;20053;-66
2022/07/08 09:08:16;;;;;;;8.32;3.63;;;27.70;96.70;;;;;;5032594;28;20376;-65
2022/07/08 09:10:44;;;;;;;4.55;3.25;;;28.00;96.80;;;;;;5031385;28;20056;-68
2022/07/08 09:13:17;;;;;;;5.65;2.97;;;28.00;97.10;;;;;;5015392;28;20438;-65
2022/07/08 09:15:50;;;;;;;5.35;2.38;;;28.00;96.40;;;;;;5032653;28;20103;-66
2022/07/08 09:18:19;;;;;;;4.65;2.00;;;27.70;95.00;;;;;;5031962;28;20052;-65
2022/07/08 09:20:49;;;;;;;3.20;2.10;;;27.60;94.70;;;;;;5031471;28;20049;-66
2022/07/08 09:23:18;;;;;;;10.35;2.20;;;27.80;94.60;;;;;;5032731;28;20052;-67
2022/07/08 09:25:48;;;;;;;4.75;2.67;;;28.10;94.60;;;;;;5031706;28;20045;-65
2022/07/08 09:28:36;;;;;;;5.97;2.28;;;28.40;94.40;;;;;;5014782;28;20061;-66
2022/07/08 09:31:09;;;;;;;6.80;2.88;;;28.80;94.20;;;;;;5032396;28;20091;-66
2022/07/08 09:33:37;;;;;;;4.70;2.40;;;29.10;94.10;;;;;;5032706;28;20049;-69
2022/07/08 09:36:06;;;;;;;5.55;2.13;;;29.40;93.60;;;;;;5031992;28;20045;-67
2022/07/08 09:38:37;;;;;;;4.72;1.80;;;29.50;92.70;;;;;;5031213;28;20041;-66
2022/07/08 09:41:06;;;;;;;2.47;1.67;;;29.60;92.30;;;;;;5031241;28;20042;-65
2022/07/08 09:43:46;;;;;;;3.05;1.80;;;29.80;92.00;;;;;;5032336;28;20515;-66
2022/07/08 09:46:14;;;;;;;3.92;1.65;;;29.80;92.10;;;;;;5028720;28;20494;-65
2022/07/08 09:48:42;;;;;;;3.15;1.75;;;29.80;92.30;;;;;;5015020;28;20058;-66
2022/07/08 09:51:10;;;;;;;2.53;1.85;;;29.80;92.40;;;;;;5032150;28;20045;-65
2022/07/08 09:53:39;;;;;;;3.88;2.10;;;30.00;92.60;;;;;;5047447;28;20509;-64
2022/07/08 09:56:08;;;;;;;2.63;1.63;;;30.10;92.90;;;;;;5031767;28;20133;-65
2022/07/08 09:58:36;;;;;;;3.97;1.52;;;30.20;92.50;;;;;;5014584;28;20055;-65
2022/07/08 10:01:04;;;;;;;1.65;1.30;;;30.20;91.50;;;;;;5030953;28;20042;-66
2022/07/08 10:03:32;;;;;;;3.22;1.65;;;30.20;91.10;;;;;;5031105;28;20501;-65
2022/07/08 10:06:01;;;;;;;3.17;1.63;;;30.10;90.80;;;;;;5013994;28;20060;-67
2022/07/08 10:08:29;;;;;;;3.15;1.42;;;30.00;91.10;;;;;;5030757;28;20053;-66
2022/07/08 10:10:58;;;;;;;2.42;1.30;;;29.90;90.80;;;;;;5031906;28;20041;-65
2022/07/08 10:13:27;;;;;;;2.25;1.20;;;29.90;90.70;;;;;;5047284;28;20037;-65
2022/07/08 10:16:00;;;;;;;1.48;1.10;;;30.00;90.70;;;;;;5031593;28;20056;-66
2022/07/08 10:18:41;;;;;;;2.80;1.48;;;30.00;90.60;;;;;;5031589;28;20052;-66
2022/07/08 10:21:11;;;;;;;3.30;1.55;;;29.90;90.30;;;;;;5031465;28;20038;-65
2022/07/08 10:23:48;;;;;;;4.47;1.48;;;29.90;89.80;;;;;;5031704;28;20483;-65
2022/07/08 10:26:24;;;;;;;3.40;1.75;;;29.80;88.90;;;;;;5030185;28;20155;-66
2022/07/08 10:29:06;;;;;;;3.17;1.40;;;29.70;89.50;;;;;;5031109;28;20049;-66
2022/07/08 10:31:48;;;;;;;2.67;1.45;;;29.80;89.50;;;;;;5030910;28;20099;-65
2022/07/08 10:34:28;;;;;;;3.90;1.80;;;29.70;89.00;;;;;;5030170;28;20124;-65
2022/07/08 10:36:56;;;;;;;2.05;1.33;;;29.60;89.00;;;;;;5030225;28;20041;-65
2022/07/08 10:39:31;;;;;;;2.50;1.50;;;29.60;89.00;;;;;;5031155;28;20053;-65
2022/07/08 10:42:03;;;;;;;2.88;1.30;;;29.80;87.60;;;;;;5029693;28;20636;-65
2022/07/08 10:44:46;;;;;;;2.00;1.30;;;29.90;86.90;;;;;;5029896;28;20069;-68
2022/07/08 10:47:18;;;;;;;2.80;1.40;;;30.10;86.30;;;;;;5029718;28;20411;-64
2022/07/08 10:49:47;;;;;;;2.35;1.70;;;30.10;86.10;;;;;;5031000;28;20052;-66
2022/07/08 10:52:16;;;;;;;2.97;1.15;;;30.10;86.00;;;;;;5045924;28;20045;-64
2022/07/08 10:54:44;;;;;;;2.50;1.42;;;30.20;84.80;;;;;;5031271;28;20133;-65
2022/07/08 10:57:27;;;;;;;2.55;1.45;;;30.20;84.50;;;;;;5013546;28;20071;-69
2022/07/08 11:00:10;;;;;;;6.85;2.47;;;30.10;84.80;;;;;;5030628;28;20053;-64
2022/07/08 11:02:43;;;;;;;4.03;1.35;;;30.10;85.10;;;;;;5029851;28;20566;-66
2022/07/08 11:05:32;;;;;;;2.60;1.40;;;30.20;84.00;;;;;;5046301;28;20115;-65
2022/07/08 11:08:18;;;;;;;2.83;1.42;;;30.20;84.50;;;;;;5030631;28;20522;-65
2022/07/08 11:10:51;;;;;;;2.15;1.17;;;30.30;83.40;;;;;;5030707;28;20050;-65
2022/07/08 11:13:20;;;;;;;4.85;1.95;;;30.30;83.70;;;;;;5029747;28;20049;-65
2022/07/08 11:15:48;;;;;;;4.20;1.60;;;30.20;83.50;;;;;;5045901;28;20124;-66
2022/07/08 11:18:23;;;;;;;2.72;1.20;;;30.30;83.70;;;;;;5045651;28;20402;-67
2022/07/08 11:20:59;;;;;;;2.90;1.60;;;30.20;83.20;;;;;;5030170;28;20044;-65
2022/07/08 11:23:30;;;;;;;2.42;1.45;;;30.10;83.00;;;;;;5029755;28;20049;-67
2022/07/08 11:25:59;;;;;;;3.83;1.30;;;30.00;83.70;;;;;;5028635;28;20140;-65
2022/07/08 11:28:27;;;;;;;5.15;1.80;;;30.00;84.60;;;;;;5029248;28;20053;-66
2022/07/08 11:30:54;;;;;;;4.13;1.55;;;29.90;85.50;;;;;;5012242;28;20191;-65
2022/07/08 11:33:39;;;;;;;5.75;1.70;;;29.90;85.90;;;;;;5028724;28;20049;-65
2022/07/08 11:36:15;;;;;;;2.47;1.23;;;29.80;86.20;;;;;;5012363;28;20091;-67
2022/07/08 11:38:43;;;;;;;6.43;1.38;;;29.80;85.40;;;;;;5029818;28;20537;-65
2022/07/08 11:41:11;;;;;;;3.58;1.50;;;29.70;84.20;;;;;;5027217;28;20403;-64
2022/07/08 11:43:40;;;;;;;4.97;1.23;;;29.80;83.80;;;;;;5044773;28;20096;-66
2022/07/08 11:46:16;;;;;;;2.88;1.25;;;29.80;83.10;;;;;;5044824;28;20047;-66
2022/07/08 11:48:43;;;;;;;2.58;1.42;;;29.80;83.40;;;;;;5029295;28;20052;-65
2022/07/08 11:51:16;;;;;;;2.25;1.02;;;29.80;82.50;;;;;;5045165;28;20046;-65
2022/07/08 11:53:45;;;;;;;3.67;0.93;;;29.70;81.70;;;;;;5028349;28;20109;-65
2022/07/08 11:56:13;;;;;;;6.53;1.40;;;29.80;82.10;;;;;;5012129;28;20450;-65
2022/07/08 11:58:41;;;;;;;2.75;0.90;;;29.80;81.80;;;;;;5028187;28;20042;-66
2022/07/08 12:01:09;;;;;;;3.20;1.08;;;29.70;81.60;;;;;;5028470;28;20050;-65
2022/07/08 12:03:37;;;;;;;1.98;1.20;;;29.60;80.80;;;;;;5028518;28;20033;-65
2022/07/08 12:06:05;;;;;;;1.80;1.20;;;29.60;81.10;;;;;;5028132;28;20056;-65
2022/07/08 12:08:41;;;;;;;1.83;1.05;;;29.60;81.40;;;;;;5028380;28;20534;-66
2022/07/08 12:11:18;;;;;;;2.88;0.85;;;29.50;81.80;;;;;;5029501;28;20046;-66
2022/07/08 12:13:51;;;;;;;1.95;1.00;;;29.40;82.60;;;;;;5027844;28;20095;-65
2022/07/08 12:16:35;;;;;;;1.52;0.90;;;29.20;81.90;;;;;;5029549;28;20108;-64
2022/07/08 12:19:04;;;;;;;2.95;1.20;;;29.30;81.80;;;;;;5029395;28;20107;-66
2022/07/08 12:21:32;;;;;;;1.90;1.00;;;29.30;81.70;;;;;;5029229;28;20095;-65
2022/07/08 12:24:04;;;;;;;1.00;0.90;;;29.20;81.80;;;;;;5028973;28;20511;-66
2022/07/08 12:26:33;;;;;;;2.13;1.38;;;29.40;81.30;;;;;;5029280;28;20045;-65
2022/07/08 12:29:13;;;;;;;1.90;1.25;;;29.60;80.90;;;;;;5041761;28;20049;-65
2022/07/08 12:31:41;;;;;;;2.25;1.23;;;29.60;81.00;;;;;;5028126;28;20076;-66
2022/07/08 12:34:16;;;;;;;1.70;1.05;;;29.70;81.60;;;;;;5027813;28;20138;-66
2022/07/08 12:36:45;;;;;;;2.50;1.02;;;29.60;81.90;;;;;;5028756;28;20046;-66
2022/07/08 12:39:14;;;;;;;3.28;1.42;;;29.70;81.40;;;;;;5028460;28;20045;-66
2022/07/08 12:41:45;;;;;;;3.72;1.17;;;29.60;80.40;;;;;;5044879;28;20462;-66
2022/07/08 12:44:32;;;;;;;2.50;1.13;;;29.60;80.90;;;;;;5044833;28;20108;-66
2022/07/08 12:47:03;;;;;;;1.80;1.08;;;29.50;80.40;;;;;;5028433;28;20056;-68
2022/07/08 12:49:32;;;;;;;1.05;0.75;;;29.40;81.60;;;;;;5028709;28;20056;-65
2022/07/08 12:52:03;;;;;;;4.38;1.02;;;29.30;82.70;;;;;;5029520;28;20137;-69
2022/07/08 12:54:33;;;;;;;2.28;1.30;;;29.20;83.70;;;;;;5031309;28;20407;-66
2022/07/08 12:57:02;;;;;;;2.72;1.20;;;29.10;84.00;;;;;;5032415;28;20811;-66
2022/07/08 12:59:30;;;;;;;2.90;1.23;;;29.10;84.50;;;;;;5031836;28;20056;-65